« Back
NWS Peachtree City, Ga » Text Product » CSG Terminal Aerodrome Forecast


Printer-friendly Version
Current Version              Previous Versions:   1  2  3  4  5  6  7  8  9  

Terminal Aerodrome Forecast

170
FTUS42 KFFC 271722 CCA
TAFCSG
TAF COR
KCSG 271722Z 2718/2818 11010KT P6SM FEW060
     FM280100 09004KT P6SM FEW080
     FM281200 09007KT P6SM SCT250=

USA.gov is the U.S. government's official web portal to all federal, state and local government web resources and services.